createdAt,value
2018-05-15T00:00:31.629Z,19.18
2018-05-15T00:03:00.957Z,19.15
2018-05-15T00:05:31.060Z,19.16
2018-05-15T00:08:00.380Z,19.06
2018-05-15T00:10:31.169Z,18.97
2018-05-15T00:13:01.931Z,18.94
2018-05-15T00:15:31.242Z,18.88
2018-05-15T00:18:00.563Z,18.85
2018-05-15T00:20:30.630Z,18.78
2018-05-15T00:23:00.263Z,18.78
2018-05-15T00:25:29.599Z,18.73
2018-05-15T00:27:59.676Z,18.69
2018-05-15T00:30:29.013Z,18.65
2018-05-15T00:32:58.318Z,18.61
2018-05-15T00:35:28.391Z,18.59
2018-05-15T00:37:57.724Z,18.56
2018-05-15T00:40:27.058Z,18.52
2018-05-15T00:42:57.520Z,18.54
2018-05-15T00:45:26.850Z,18.48
2018-05-15T00:47:57.250Z,18.54
2018-05-15T00:50:26.634Z,18.43
2018-05-15T00:52:56.632Z,18.37
2018-05-15T00:55:43.745Z,18.32
2018-05-15T00:58:13.053Z,18.29
2018-05-15T01:00:43.160Z,18.30
2018-05-15T01:03:13.160Z,18.26
2018-05-15T01:05:42.485Z,18.22
2018-05-15T01:08:11.902Z,18.22
2018-05-15T01:10:41.994Z,18.13
2018-05-15T01:13:11.372Z,18.12
2018-05-15T01:15:40.680Z,18.09
2018-05-15T01:18:10.007Z,18.13
2018-05-15T01:20:39.353Z,18.07
2018-05-15T01:23:08.673Z,18.00
2018-05-15T01:25:37.986Z,17.91
2018-05-15T01:28:07.322Z,17.87
2018-05-15T01:30:36.654Z,17.84
2018-05-15T01:33:06.760Z,17.82
2018-05-15T01:35:36.844Z,17.76
2018-05-15T01:38:06.160Z,17.72
2018-05-15T01:40:35.495Z,17.75
2018-05-15T01:43:05.584Z,17.77
2018-05-15T01:45:34.920Z,17.73
2018-05-15T01:48:04.991Z,17.68
2018-05-15T01:50:34.340Z,17.70
2018-05-15T01:53:04.438Z,17.62
2018-05-15T01:55:33.759Z,17.58
2018-05-15T01:58:03.820Z,17.59
2018-05-15T02:00:33.140Z,17.54
2018-05-15T02:03:02.455Z,17.44
2018-05-15T02:05:31.790Z,17.39
2018-05-15T02:08:01.904Z,17.38
2018-05-15T02:10:31.236Z,17.35
2018-05-15T02:13:00.535Z,17.27
2018-05-15T02:15:30.494Z,17.22
2018-05-15T02:17:59.820Z,17.16
2018-05-15T02:20:29.180Z,17.10
2018-05-15T02:22:58.497Z,17.05
2018-05-15T02:25:27.830Z,17.11
2018-05-15T02:27:57.196Z,17.01
2018-05-15T02:30:26.557Z,16.98
2018-05-15T02:32:55.822Z,16.88
2018-05-15T02:35:25.193Z,16.86
2018-05-15T02:37:54.536Z,16.89
2018-05-15T02:40:23.839Z,16.87
2018-05-15T02:42:53.171Z,16.83
2018-05-15T02:45:23.262Z,16.82
2018-05-15T02:47:52.562Z,16.73
2018-05-15T02:50:21.936Z,16.72
2018-05-15T02:52:51.233Z,16.75
2018-05-15T02:55:20.588Z,16.72
2018-05-15T02:57:49.917Z,16.72
2018-05-15T03:00:19.235Z,16.67
2018-05-15T03:02:48.568Z,16.60
2018-05-15T03:05:17.886Z,16.59
2018-05-15T03:07:47.210Z,16.57
2018-05-15T03:10:17.601Z,16.51
2018-05-15T03:12:46.974Z,16.51
2018-05-15T03:15:16.295Z,16.53
2018-05-15T03:17:45.619Z,16.53
2018-05-15T03:20:14.958Z,16.47
2018-05-15T03:22:45.051Z,16.43
2018-05-15T03:25:14.359Z,16.42
2018-05-15T03:27:44.434Z,16.34
2018-05-15T03:30:13.789Z,16.29
2018-05-15T03:32:44.517Z,16.26
2018-05-15T03:35:14.513Z,16.21
2018-05-15T03:37:44.527Z,16.28
2018-05-15T03:40:13.835Z,16.26
2018-05-15T03:42:43.167Z,16.23
2018-05-15T03:45:13.289Z,16.15
2018-05-15T03:47:42.594Z,16.16
2018-05-15T03:50:12.723Z,16.10
2018-05-15T03:52:42.813Z,16.06
2018-05-15T03:55:12.130Z,16.05
2018-05-15T03:57:41.484Z,16.06
2018-05-15T04:00:28.765Z,16.07
2018-05-15T04:03:15.784Z,16.07
2018-05-15T04:06:03.796Z,16.04
2018-05-15T04:08:33.199Z,16.02
2018-05-15T04:11:02.488Z,16.04
2018-05-15T04:13:31.791Z,15.97
2018-05-15T04:16:01.192Z,15.94
2018-05-15T04:18:31.150Z,15.91
2018-05-15T04:21:01.252Z,15.91
2018-05-15T04:23:30.558Z,15.91
2018-05-15T04:25:59.858Z,15.94
2018-05-15T04:28:29.278Z,15.98
2018-05-15T04:30:58.517Z,15.94
2018-05-15T04:33:27.806Z,15.94
2018-05-15T04:35:57.162Z,15.96
2018-05-15T04:38:26.468Z,15.99
2018-05-15T04:40:55.801Z,16.01
2018-05-15T04:43:25.987Z,16.04
2018-05-15T04:45:55.198Z,16.05
2018-05-15T04:48:24.529Z,16.02
2018-05-15T04:50:54.615Z,16.06
2018-05-15T04:53:23.927Z,16.07
2018-05-15T04:55:53.387Z,16.13
2018-05-15T04:58:22.700Z,16.10
2018-05-15T05:00:52.016Z,16.17
2018-05-15T05:03:21.323Z,16.21
2018-05-15T05:05:50.631Z,16.29
2018-05-15T05:08:19.970Z,16.37
2018-05-15T05:10:50.116Z,16.35
2018-05-15T05:13:19.394Z,16.36
2018-05-15T05:15:49.363Z,16.45
2018-05-15T05:18:18.688Z,16.51
2018-05-15T05:20:48.095Z,16.60
2018-05-15T05:23:17.412Z,16.60
2018-05-15T05:25:46.809Z,16.66
2018-05-15T05:28:16.150Z,16.70
2018-05-15T05:30:45.477Z,16.75
2018-05-15T05:33:14.831Z,16.80
2018-05-15T05:35:44.131Z,16.88
2018-05-15T05:38:14.228Z,16.96
2018-05-15T05:40:43.526Z,17.07
2018-05-15T05:43:12.877Z,17.21
2018-05-15T05:45:42.205Z,17.27
2018-05-15T05:48:12.352Z,17.40
2018-05-15T05:50:41.717Z,17.43
2018-05-15T05:53:11.590Z,17.57
2018-05-15T05:55:41.747Z,17.63
2018-05-15T05:58:11.051Z,17.74
2018-05-15T06:00:40.371Z,17.84
2018-05-15T06:03:09.709Z,17.93
2018-05-15T06:05:39.046Z,18.00
2018-05-15T06:08:09.158Z,18.14
2018-05-15T06:10:39.237Z,18.21
2018-05-15T06:13:08.580Z,18.20
2018-05-15T06:15:38.671Z,18.25
2018-05-15T06:18:08.006Z,18.40
2018-05-15T06:20:38.121Z,18.51
2018-05-15T06:23:07.415Z,18.58
2018-05-15T06:25:37.489Z,18.61
2018-05-15T06:28:08.187Z,18.65
2018-05-15T06:30:37.511Z,18.68
2018-05-15T06:33:06.828Z,18.76
2018-05-15T06:35:36.151Z,18.92
2018-05-15T06:38:05.503Z,18.88
2018-05-15T06:40:35.641Z,18.87
2018-05-15T06:43:04.974Z,18.86
2018-05-15T06:45:34.313Z,18.82
2018-05-15T06:48:04.370Z,18.81
2018-05-15T06:50:33.853Z,18.85
2018-05-15T06:53:03.152Z,18.93
2018-05-15T06:55:32.492Z,19.06
2018-05-15T06:58:01.891Z,19.16
2018-05-15T07:00:31.255Z,19.26
2018-05-15T07:03:01.344Z,19.39
2018-05-15T07:05:30.749Z,19.39
2018-05-15T07:08:00.054Z,19.49
2018-05-15T07:10:29.412Z,19.62
2018-05-15T07:12:58.754Z,19.80
2018-05-15T07:15:28.153Z,19.93
2018-05-15T07:17:58.189Z,19.94
2018-05-15T07:20:27.514Z,20.09
2018-05-15T07:22:57.634Z,20.28
2018-05-15T07:25:27.712Z,20.41
2018-05-15T07:27:57.231Z,20.63
2018-05-15T07:30:26.335Z,20.74
2018-05-15T07:32:55.642Z,20.76
2018-05-15T07:35:24.975Z,20.92
2018-05-15T07:37:54.282Z,21.09
2018-05-15T07:40:23.614Z,21.27
2018-05-15T07:42:52.910Z,21.44
2018-05-15T07:45:22.213Z,21.58
2018-05-15T07:47:51.566Z,21.79
2018-05-15T07:50:21.522Z,21.91
2018-05-15T07:52:50.846Z,22.03
2018-05-15T07:55:20.159Z,22.16
2018-05-15T07:57:49.485Z,22.28
2018-05-15T08:00:18.794Z,22.36
2018-05-15T08:02:48.893Z,22.33
2018-05-15T08:05:18.218Z,22.43
2018-05-15T08:07:48.342Z,22.33
2018-05-15T08:10:18.441Z,22.47
2018-05-15T08:12:48.332Z,22.57
2018-05-15T08:15:17.660Z,22.39
2018-05-15T08:17:46.975Z,22.65
2018-05-15T08:20:16.342Z,22.91
2018-05-15T08:22:45.661Z,23.31
2018-05-15T08:25:14.997Z,23.64
2018-05-15T08:27:45.076Z,23.91
2018-05-15T08:30:14.425Z,24.15
2018-05-15T08:32:44.535Z,24.25
2018-05-15T08:35:13.857Z,24.40
2018-05-15T08:37:43.266Z,24.53
2018-05-15T08:40:12.531Z,24.76
2018-05-15T08:42:41.835Z,24.86
2018-05-15T08:45:11.156Z,25.13
2018-05-15T08:47:41.256Z,25.35
2018-05-15T08:50:10.573Z,25.64
2018-05-15T08:52:39.898Z,25.74
2018-05-15T08:55:09.243Z,25.87
2018-05-15T08:57:38.543Z,26.09
2018-05-15T09:00:07.870Z,26.40
2018-05-15T09:02:37.209Z,26.50
2018-05-15T09:05:06.530Z,26.57
2018-05-15T09:07:35.862Z,26.79
2018-05-15T09:10:05.182Z,26.88
2018-05-15T09:12:34.536Z,26.94
2018-05-15T09:15:03.859Z,26.95
2018-05-15T09:17:34.007Z,27.01
2018-05-15T09:20:03.322Z,27.10
2018-05-15T09:22:33.424Z,27.34
2018-05-15T09:25:02.754Z,27.51
2018-05-15T09:27:32.869Z,27.78
2018-05-15T09:30:02.170Z,27.93
2018-05-15T09:32:32.259Z,28.09
2018-05-15T09:35:01.563Z,27.88
2018-05-15T09:37:30.893Z,27.75
2018-05-15T09:40:00.229Z,27.74
2018-05-15T09:42:29.546Z,27.81
2018-05-15T09:44:58.867Z,27.61
2018-05-15T09:47:28.175Z,27.29
2018-05-15T09:49:57.482Z,27.42
2018-05-15T09:52:26.851Z,27.58
2018-05-15T09:54:56.136Z,27.66
2018-05-15T09:57:25.440Z,27.35
2018-05-15T09:59:54.764Z,27.56
2018-05-15T10:02:24.089Z,27.92
2018-05-15T10:04:53.399Z,28.16
2018-05-15T10:07:22.734Z,28.20
2018-05-15T10:09:52.819Z,28.28
2018-05-15T10:12:22.148Z,28.09
2018-05-15T10:14:52.260Z,28.43
2018-05-15T10:17:21.582Z,28.63
2018-05-15T10:19:51.759Z,28.62
2018-05-15T10:22:21.016Z,28.62
2018-05-15T10:24:51.079Z,28.80
2018-05-15T10:27:20.413Z,28.48
2018-05-15T10:29:49.755Z,28.21
2018-05-15T10:32:19.128Z,28.12
2018-05-15T10:34:48.441Z,28.27
2018-05-15T10:37:18.567Z,28.32
2018-05-15T10:39:47.868Z,28.14
2018-05-15T10:42:17.956Z,27.72
2018-05-15T10:44:47.287Z,27.78
2018-05-15T10:47:17.451Z,27.80
2018-05-15T10:49:46.801Z,27.84
2018-05-15T10:52:16.932Z,27.98
2018-05-15T10:54:47.043Z,28.02
2018-05-15T10:57:16.385Z,28.09
2018-05-15T10:59:46.473Z,27.94
2018-05-15T11:02:16.593Z,27.90
2018-05-15T11:04:46.698Z,27.92
2018-05-15T11:07:16.013Z,28.03
2018-05-15T11:09:46.091Z,27.76
2018-05-15T11:12:15.409Z,27.37
2018-05-15T11:14:44.738Z,27.13
2018-05-15T11:17:14.076Z,27.22
2018-05-15T11:20:00.918Z,27.43
2018-05-15T11:22:47.970Z,27.55
2018-05-15T11:25:18.083Z,28.05
2018-05-15T11:27:47.399Z,28.56
2018-05-15T11:30:17.474Z,28.97
2018-05-15T11:32:46.812Z,28.92
2018-05-15T11:35:16.138Z,29.01
2018-05-15T11:37:46.213Z,29.01
2018-05-15T11:40:15.523Z,28.99
2018-05-15T11:42:44.852Z,29.17
2018-05-15T11:45:14.959Z,29.40
2018-05-15T11:47:44.509Z,29.36
2018-05-15T11:50:14.528Z,29.62
2018-05-15T11:52:43.373Z,29.91
2018-05-15T11:55:12.428Z,30.32
2018-05-15T11:57:41.745Z,30.09
2018-05-15T12:00:11.368Z,29.93
2018-05-15T12:02:41.447Z,29.83
2018-05-15T12:05:10.740Z,29.22
2018-05-15T12:07:40.836Z,28.74
2018-05-15T12:10:10.174Z,29.10
2018-05-15T12:12:39.502Z,29.47
2018-05-15T12:15:08.866Z,29.83
2018-05-15T12:17:38.925Z,30.07
2018-05-15T12:20:08.256Z,30.17
2018-05-15T12:22:38.144Z,30.30
2018-05-15T12:25:07.474Z,30.44
2018-05-15T12:27:36.784Z,30.46
2018-05-15T12:30:06.114Z,30.56
2018-05-15T12:32:36.228Z,30.59
2018-05-15T12:35:06.305Z,31.04
2018-05-15T12:37:35.627Z,31.28
2018-05-15T12:40:04.969Z,31.28
2018-05-15T12:42:34.350Z,31.30
2018-05-15T12:45:04.449Z,31.35
2018-05-15T12:47:33.791Z,31.58
2018-05-15T12:50:03.991Z,31.75
2018-05-15T12:52:33.310Z,31.67
2018-05-15T12:55:02.623Z,31.90
2018-05-15T12:57:31.945Z,31.82
2018-05-15T13:00:01.342Z,31.81
2018-05-15T13:02:30.653Z,31.64
2018-05-15T13:04:59.993Z,31.93
2018-05-15T13:07:29.407Z,32.07
2018-05-15T13:09:59.433Z,32.21
2018-05-15T13:12:29.522Z,32.12
2018-05-15T13:14:58.837Z,32.22
2018-05-15T13:17:28.186Z,32.26
2018-05-15T13:19:57.520Z,32.32
2018-05-15T13:22:26.817Z,32.32
2018-05-15T13:24:56.166Z,32.23
2018-05-15T13:27:25.469Z,31.94
2018-05-15T13:29:54.940Z,31.90
2018-05-15T13:32:24.260Z,31.92
2018-05-15T13:34:53.588Z,32.03
2018-05-15T13:37:23.701Z,32.12
2018-05-15T13:39:53.007Z,32.37
2018-05-15T13:42:23.113Z,32.50
2018-05-15T13:44:52.428Z,32.80
2018-05-15T13:47:22.541Z,32.63
2018-05-15T13:49:51.838Z,32.62
2018-05-15T13:52:21.135Z,32.59
2018-05-15T13:54:50.466Z,32.18
2018-05-15T13:57:20.526Z,32.21
2018-05-15T13:59:49.855Z,32.51
2018-05-15T14:02:19.177Z,32.53
2018-05-15T14:04:48.482Z,32.40
2018-05-15T14:07:18.597Z,32.15
2018-05-15T14:09:47.926Z,31.32
2018-05-15T14:12:17.246Z,31.10
2018-05-15T14:14:46.589Z,31.29
2018-05-15T14:17:15.892Z,31.07
2018-05-15T14:19:46.516Z,31.46
2018-05-15T14:22:15.818Z,31.71
2018-05-15T14:24:45.170Z,31.90
2018-05-15T14:27:14.508Z,31.91
2018-05-15T14:29:43.816Z,31.89
2018-05-15T14:32:13.206Z,31.72
2018-05-15T14:34:42.513Z,31.60
2018-05-15T14:37:11.867Z,31.84
2018-05-15T14:39:41.207Z,31.91
2018-05-15T14:42:28.362Z,32.00
2018-05-15T14:44:58.208Z,32.03
2018-05-15T14:47:28.301Z,32.10
2018-05-15T14:49:57.637Z,32.02
2018-05-15T14:52:27.774Z,31.90
2018-05-15T14:54:57.842Z,31.54
2018-05-15T14:57:27.188Z,30.83
2018-05-15T14:59:57.274Z,30.68
2018-05-15T15:02:26.599Z,30.40
2018-05-15T15:04:56.672Z,30.17
2018-05-15T15:07:26.013Z,30.44
2018-05-15T15:09:55.355Z,30.61
2018-05-15T15:12:24.660Z,30.82
2018-05-15T15:14:54.008Z,30.74
2018-05-15T15:17:23.331Z,30.61
2018-05-15T15:19:52.738Z,30.45
2018-05-15T15:22:22.059Z,30.35
2018-05-15T15:24:51.375Z,30.00
2018-05-15T15:27:20.905Z,29.66
2018-05-15T15:29:50.214Z,29.48
2018-05-15T15:32:19.557Z,29.22
2018-05-15T15:34:48.898Z,29.24
2018-05-15T15:37:18.231Z,29.37
2018-05-15T15:39:47.542Z,29.35
2018-05-15T15:42:16.929Z,29.35
2018-05-15T15:44:46.262Z,29.12
2018-05-15T15:47:15.567Z,29.03
2018-05-15T15:49:44.890Z,29.00
2018-05-15T15:52:14.997Z,29.11
2018-05-15T15:54:45.068Z,29.13
2018-05-15T15:57:14.410Z,29.18
2018-05-15T15:59:43.755Z,29.03
2018-05-15T16:02:13.091Z,28.96
2018-05-15T16:04:42.417Z,28.83
2018-05-15T16:07:12.475Z,28.60
2018-05-15T16:09:41.810Z,28.51
2018-05-15T16:12:11.965Z,28.19
2018-05-15T16:14:41.284Z,28.15
2018-05-15T16:17:11.601Z,28.08
2018-05-15T16:19:40.926Z,28.13
2018-05-15T16:22:10.430Z,28.15
2018-05-15T16:24:39.865Z,27.89
2018-05-15T16:27:09.206Z,27.86
2018-05-15T16:29:38.534Z,27.76
2018-05-15T16:32:07.916Z,27.70
2018-05-15T16:34:37.271Z,27.63
2018-05-15T16:37:06.616Z,27.59
2018-05-15T16:39:35.958Z,27.55
2018-05-15T16:42:06.152Z,27.38
2018-05-15T16:44:35.485Z,27.23
2018-05-15T16:47:05.593Z,27.07
2018-05-15T16:49:35.691Z,26.89
2018-05-15T16:52:05.034Z,26.79
2018-05-15T16:54:34.413Z,26.77
2018-05-15T16:57:03.715Z,26.63
2018-05-15T16:59:33.825Z,26.62
2018-05-15T17:02:03.146Z,26.63
2018-05-15T17:04:33.234Z,26.49
2018-05-15T17:07:02.568Z,26.38
2018-05-15T17:09:32.674Z,26.29
2018-05-15T17:12:02.018Z,26.14
2018-05-15T17:14:31.341Z,26.02
2018-05-15T17:17:00.672Z,25.92
2018-05-15T17:19:30.039Z,25.78
2018-05-15T17:21:59.375Z,25.70
2018-05-15T17:24:28.695Z,25.59
2018-05-15T17:26:58.046Z,25.53
2018-05-15T17:29:27.352Z,25.43
2018-05-15T17:31:56.696Z,25.38
2018-05-15T17:34:26.047Z,25.37
2018-05-15T17:36:55.370Z,25.35
2018-05-15T17:39:24.826Z,25.28
2018-05-15T17:41:54.916Z,25.16
2018-05-15T17:44:24.276Z,25.11
2018-05-15T17:46:56.624Z,25.06
2018-05-15T17:49:26.091Z,25.01
2018-05-15T17:51:55.430Z,24.96
2018-05-15T17:54:25.534Z,24.93
2018-05-15T17:56:54.858Z,24.89
2018-05-15T17:59:26.068Z,24.93
2018-05-15T18:01:56.127Z,24.83
2018-05-15T18:04:26.234Z,24.74
2018-05-15T18:06:55.582Z,24.62
2018-05-15T18:09:24.921Z,24.54
2018-05-15T18:11:54.218Z,24.51
2018-05-15T18:14:23.651Z,24.51
2018-05-15T18:16:52.965Z,24.47
2018-05-15T18:19:23.054Z,24.46
2018-05-15T18:21:52.378Z,24.43
2018-05-15T18:24:22.491Z,24.46
2018-05-15T18:26:51.818Z,24.42
2018-05-15T18:29:21.143Z,24.39
2018-05-15T18:31:50.463Z,24.36
2018-05-15T18:34:19.784Z,24.30
2018-05-15T18:36:49.144Z,24.26
2018-05-15T18:39:18.481Z,24.24
2018-05-15T18:41:47.809Z,24.16
2018-05-15T18:44:17.122Z,24.08
2018-05-15T18:46:47.245Z,24.02
2018-05-15T18:49:17.306Z,23.93
2018-05-15T18:51:46.629Z,23.85
2018-05-15T18:54:15.973Z,23.77
2018-05-15T18:56:46.064Z,23.69
2018-05-15T18:59:15.443Z,23.61
2018-05-15T19:01:44.788Z,23.53
2018-05-15T19:04:14.125Z,23.45
2018-05-15T19:06:44.208Z,23.34
2018-05-15T19:09:13.502Z,23.25
2018-05-15T19:11:42.944Z,23.14
2018-05-15T19:14:12.217Z,23.04
2018-05-15T19:16:41.630Z,22.95
2018-05-15T19:19:11.032Z,22.87
2018-05-15T19:21:41.156Z,22.78
2018-05-15T19:24:11.262Z,22.72
2018-05-15T19:26:40.563Z,22.64
2018-05-15T19:29:09.875Z,22.54
2018-05-15T19:31:39.420Z,22.47
2018-05-15T19:34:14.360Z,22.39
2018-05-15T19:36:49.100Z,22.33
2018-05-15T19:39:18.493Z,22.24
2018-05-15T19:41:47.804Z,22.15
2018-05-15T19:44:17.100Z,22.08
2018-05-15T19:46:46.401Z,22.02
2018-05-15T19:49:15.736Z,21.95
2018-05-15T19:51:45.152Z,21.90
2018-05-15T19:54:14.404Z,21.83
2018-05-15T19:56:43.729Z,21.79
2018-05-15T19:59:13.084Z,21.72
2018-05-15T20:01:43.196Z,21.69
2018-05-15T20:04:12.551Z,21.64
2018-05-15T20:06:41.902Z,21.59
2018-05-15T20:09:11.349Z,21.54
2018-05-15T20:11:42.117Z,21.47
2018-05-15T20:14:11.473Z,21.42
2018-05-15T20:16:41.581Z,21.35
2018-05-15T20:19:10.887Z,21.28
2018-05-15T20:21:41.053Z,21.26
2018-05-15T20:24:10.367Z,21.20
2018-05-15T20:26:39.673Z,21.13
2018-05-15T20:29:09.850Z,21.11
2018-05-15T20:31:39.152Z,21.06
2018-05-15T20:34:09.220Z,21.02
2018-05-15T20:36:38.559Z,21.01
2018-05-15T20:39:09.964Z,21.04
2018-05-15T20:41:39.287Z,21.02
2018-05-15T20:44:08.633Z,21.01
2018-05-15T20:49:37.849Z,21.04
2018-05-15T20:52:08.020Z,21.04
2018-05-15T20:54:37.259Z,21.02
2018-05-15T20:57:07.339Z,21.02
2018-05-15T20:59:36.673Z,21.06
2018-05-15T21:02:05.994Z,21.08
2018-05-15T21:04:36.116Z,21.08
2018-05-15T21:07:06.190Z,21.08
2018-05-15T21:09:36.947Z,21.08
2018-05-15T21:12:06.263Z,21.09
2018-05-15T21:14:36.366Z,21.07
2018-05-15T21:17:05.681Z,21.08
2018-05-15T21:19:35.760Z,21.13
2018-05-15T21:22:05.099Z,21.02
2018-05-15T21:24:34.547Z,20.99
2018-05-15T21:27:03.865Z,20.98
2018-05-15T21:29:33.223Z,20.95
2018-05-15T21:32:03.238Z,20.92
2018-05-15T21:34:32.581Z,20.91
2018-05-15T21:37:02.550Z,20.93
2018-05-15T21:39:31.913Z,20.90
2018-05-15T21:42:01.226Z,20.89
2018-05-15T21:44:30.541Z,20.89
2018-05-15T21:46:59.850Z,20.84
2018-05-15T21:49:29.224Z,20.86
2018-05-15T21:51:58.565Z,20.81
2018-05-15T21:54:27.860Z,20.79
2018-05-15T21:56:57.161Z,20.74
2018-05-15T21:59:26.503Z,20.71
2018-05-15T22:01:55.876Z,20.77
2018-05-15T22:04:25.211Z,20.69
2018-05-15T22:06:55.296Z,20.64
2018-05-15T22:09:24.633Z,20.57
2018-05-15T22:12:11.634Z,20.56
2018-05-15T22:14:58.682Z,20.51
2018-05-15T22:17:45.613Z,20.48
2018-05-15T22:20:32.802Z,20.48
2018-05-15T22:23:02.175Z,20.45
2018-05-15T22:25:31.470Z,20.44
2018-05-15T22:28:00.807Z,20.42
2018-05-15T22:30:30.901Z,20.39
2018-05-15T22:33:00.212Z,20.37
2018-05-15T22:35:29.559Z,20.34
2018-05-15T22:37:58.899Z,20.33
2018-05-15T22:40:28.225Z,20.29
2018-05-15T22:42:58.311Z,20.31
2018-05-15T22:45:27.623Z,20.30
2018-05-15T22:47:56.961Z,20.29
2018-05-15T22:50:27.030Z,20.29
2018-05-15T22:52:56.343Z,20.27
2018-05-15T22:55:25.696Z,20.25
2018-05-15T22:57:55.546Z,20.24
2018-05-15T23:00:24.874Z,20.26
2018-05-15T23:02:54.212Z,20.29
2018-05-15T23:05:24.296Z,20.28
2018-05-15T23:07:54.307Z,20.26
2018-05-15T23:10:23.683Z,20.23
2018-05-15T23:12:53.019Z,20.26
2018-05-15T23:15:22.362Z,20.26
2018-05-15T23:17:52.440Z,20.18
2018-05-15T23:20:21.736Z,20.19
2018-05-15T23:22:51.073Z,20.14
2018-05-15T23:25:21.041Z,20.14
2018-05-15T23:27:50.368Z,20.07
2018-05-15T23:30:19.712Z,20.03
2018-05-15T23:32:49.777Z,20.01
2018-05-15T23:35:19.099Z,20.01
2018-05-15T23:37:48.433Z,20.01
2018-05-15T23:40:18.520Z,20.00
2018-05-15T23:42:47.819Z,19.98
2018-05-15T23:45:17.133Z,19.94
2018-05-15T23:47:46.466Z,19.96
2018-05-15T23:50:15.757Z,19.92
2018-05-15T23:52:45.864Z,19.90
2018-05-15T23:55:15.179Z,19.91
2018-05-15T23:57:45.246Z,19.86
